METAR Data
IDs: Format: Raw Decoded Include TAF

Data at: 1349 UTC 26 Feb 2021

LJPZ 261330Z 29006KT CAVOK 15/08 Q1026